Time;durP1;ratioP1;P1;durP2;ratioP2;P2;SDS_P1;SDS_P2;PMS_P1;PMS_P2;Temp;Humidity;BMP_temperature;BMP_pressure;BME280_temperature;BME280_humidity;BME280_pressure;Samples;Min_cycle;Max_cycle;Signal;HPM_P1;HPM_P2
2022/07/26 05:02:52;;;;;;;1.80;0.85;;;20.90;94.70;;;;;;5282236;23;20127;-72
2022/07/26 05:05:18;;;;;;;2.80;1.00;;;21.00;94.30;;;;;;4928864;29;20086;-72
2022/07/26 05:07:52;;;;;;;3.53;1.30;;;21.00;94.30;;;;;;4946083;29;20066;-73
2022/07/26 05:10:20;;;;;;;4.53;1.40;;;21.00;94.40;;;;;;4935694;29;20047;-71
2022/07/26 05:12:46;;;;;;;3.25;1.42;;;21.00;94.50;;;;;;4945974;29;20208;-73
2022/07/26 05:15:13;;;;;;;2.75;1.50;;;21.00;94.40;;;;;;4945750;29;20305;-71
2022/07/26 05:17:40;;;;;;;3.88;1.10;;;21.10;94.20;;;;;;4945692;29;20031;-73
2022/07/26 05:20:07;;;;;;;2.70;1.45;;;21.30;93.80;;;;;;4927659;29;20032;-73
2022/07/26 05:22:34;;;;;;;3.22;1.23;;;21.40;93.70;;;;;;4946173;29;20034;-71
2022/07/26 05:25:00;;;;;;;2.70;1.10;;;21.50;93.40;;;;;;4928503;29;20083;-71
2022/07/26 05:27:25;;;;;;;4.10;1.45;;;21.60;93.00;;;;;;4945992;29;20032;-73
2022/07/26 05:29:51;;;;;;;3.65;1.40;;;21.80;92.50;;;;;;4945568;29;20062;-71
2022/07/26 05:32:17;;;;;;;2.83;1.33;;;22.00;92.20;;;;;;4939361;29;20107;-71
2022/07/26 05:34:43;;;;;;;3.75;1.40;;;22.00;91.90;;;;;;4943354;29;20289;-71
2022/07/26 05:37:08;;;;;;;3.15;1.55;;;22.10;91.80;;;;;;4926812;29;20043;-71
2022/07/26 05:39:34;;;;;;;2.60;1.55;;;22.20;91.60;;;;;;4926702;29;20187;-72
2022/07/26 05:42:00;;;;;;;3.92;1.42;;;22.50;91.20;;;;;;4909352;29;20051;-73
2022/07/26 05:44:26;;;;;;;2.83;1.40;;;22.40;91.20;;;;;;4926774;29;20059;-73
2022/07/26 05:46:51;;;;;;;2.90;1.17;;;22.20;91.40;;;;;;4952823;28;20042;-73
2022/07/26 05:49:17;;;;;;;3.85;1.50;;;22.10;91.60;;;;;;4984258;28;20035;-73
2022/07/26 05:51:43;;;;;;;3.95;1.50;;;22.00;91.70;;;;;;4966749;28;20037;-73
2022/07/26 05:54:09;;;;;;;3.55;1.48;;;21.80;91.80;;;;;;4983512;28;20050;-73
2022/07/26 05:56:35;;;;;;;3.10;1.55;;;21.60;92.30;;;;;;4983077;28;20191;-73
2022/07/26 05:59:00;;;;;;;2.95;1.58;;;21.40;92.70;;;;;;4964168;29;20266;-73
2022/07/26 06:01:28;;;;;;;3.13;1.70;;;21.30;92.90;;;;;;4951948;28;20111;-72
2022/07/26 06:03:54;;;;;;;5.27;1.90;;;21.40;93.00;;;;;;4944434;29;20094;-73
2022/07/26 06:06:19;;;;;;;3.42;1.40;;;21.40;92.70;;;;;;4945177;29;20047;-74
2022/07/26 06:08:45;;;;;;;4.75;1.40;;;21.50;92.60;;;;;;4944990;29;20039;-72
2022/07/26 06:11:11;;;;;;;3.97;1.60;;;21.60;92.10;;;;;;4927703;29;20075;-75
2022/07/26 06:13:37;;;;;;;4.50;1.60;;;21.70;91.80;;;;;;4945560;29;20074;-75
2022/07/26 06:16:03;;;;;;;3.80;1.40;;;21.80;91.70;;;;;;4944000;29;20065;-74
2022/07/26 06:18:28;;;;;;;3.08;1.33;;;21.80;91.60;;;;;;4964203;29;20039;-74
2022/07/26 06:20:54;;;;;;;2.97;1.50;;;21.80;91.00;;;;;;4963787;29;20035;-74
2022/07/26 06:23:20;;;;;;;2.97;1.52;;;21.90;90.40;;;;;;4964100;29;20015;-72
2022/07/26 06:25:46;;;;;;;4.30;1.63;;;22.00;89.70;;;;;;4964321;29;20090;-74
2022/07/26 06:28:12;;;;;;;3.25;1.30;;;22.10;88.20;;;;;;4963739;29;20390;-74
2022/07/26 06:30:38;;;;;;;4.43;1.30;;;22.10;88.80;;;;;;4963613;29;20035;-75
2022/07/26 06:33:04;;;;;;;4.85;1.30;;;22.10;87.00;;;;;;4963802;29;20151;-76
2022/07/26 06:35:31;;;;;;;3.10;1.15;;;22.10;85.70;;;;;;4964165;29;20031;-78
2022/07/26 06:37:58;;;;;;;3.85;1.10;;;22.20;85.60;;;;;;4963849;29;20225;-73
2022/07/26 06:40:24;;;;;;;5.32;1.13;;;22.30;84.20;;;;;;4964388;29;20217;-75
2022/07/26 06:42:50;;;;;;;3.05;1.00;;;22.40;83.90;;;;;;4963889;29;20070;-74
2022/07/26 06:45:17;;;;;;;4.10;1.08;;;22.40;83.00;;;;;;4962729;28;20046;-74
2022/07/26 06:47:43;;;;;;;4.57;1.00;;;22.50;80.70;;;;;;4946771;29;20244;-73
2022/07/26 06:50:09;;;;;;;2.60;0.82;;;22.50;81.70;;;;;;4946552;29;20035;-73
2022/07/26 06:52:35;;;;;;;6.18;1.58;;;22.60;81.50;;;;;;4963698;29;20038;-74
2022/07/26 06:55:02;;;;;;;4.80;1.00;;;22.80;80.70;;;;;;4930883;29;20031;-74
2022/07/26 06:57:28;;;;;;;4.28;0.88;;;22.90;79.30;;;;;;4955830;29;20058;-72
2022/07/26 06:59:54;;;;;;;2.50;0.90;;;22.90;79.40;;;;;;4944055;29;20055;-72
2022/07/26 07:02:20;;;;;;;3.58;0.70;;;23.00;78.30;;;;;;4944016;29;20122;-73
2022/07/26 07:04:45;;;;;;;2.25;0.65;;;23.00;77.40;;;;;;4944867;29;20186;-73
2022/07/26 07:07:11;;;;;;;3.13;0.70;;;23.00;76.60;;;;;;4940721;29;20031;-73
2022/07/26 07:09:37;;;;;;;2.08;0.60;;;23.00;76.10;;;;;;4943127;29;20039;-74
2022/07/26 07:12:06;;;;;;;3.05;0.70;;;22.90;75.60;;;;;;4942571;29;20023;-76
2022/07/26 07:14:32;;;;;;;5.93;0.68;;;22.90;75.30;;;;;;4926725;29;20032;-75
2022/07/26 07:17:18;;;;;;;3.80;0.70;;;22.90;75.00;;;;;;4896910;29;20060;-73
2022/07/26 07:19:47;;;;;;;4.50;0.70;;;23.10;75.40;;;;;;4924633;29;20300;-75
2022/07/26 07:22:14;;;;;;;2.47;0.80;;;23.30;73.60;;;;;;4924182;29;20369;-75
2022/07/26 07:24:41;;;;;;;3.35;0.65;;;23.50;73.10;;;;;;4934438;29;20035;-74
2022/07/26 07:27:07;;;;;;;3.53;0.73;;;23.50;72.40;;;;;;4942989;29;20104;-75
2022/07/26 07:29:36;;;;;;;4.10;0.80;;;23.50;71.90;;;;;;4943141;29;20483;-74
2022/07/26 07:32:02;;;;;;;3.97;0.63;;;23.50;70.70;;;;;;4949857;29;20055;-75
2022/07/26 07:34:28;;;;;;;3.70;0.93;;;23.60;70.70;;;;;;4942989;29;20428;-72
2022/07/26 07:36:54;;;;;;;2.88;1.00;;;23.70;71.30;;;;;;4942720;29;20051;-73
2022/07/26 07:39:20;;;;;;;3.72;0.90;;;23.80;71.30;;;;;;4942942;29;20043;-73
2022/07/26 07:41:46;;;;;;;6.82;0.80;;;23.90;70.40;;;;;;4925886;29;20336;-73
2022/07/26 07:44:12;;;;;;;4.50;0.57;;;24.00;69.80;;;;;;4942741;29;20042;-72
2022/07/26 07:46:38;;;;;;;3.85;1.00;;;23.80;69.60;;;;;;4942106;28;20067;-75
2022/07/26 07:49:05;;;;;;;2.70;0.70;;;23.80;70.20;;;;;;4942334;29;20293;-72
2022/07/26 07:51:32;;;;;;;3.58;0.85;;;23.80;70.20;;;;;;4942869;29;20244;-74
2022/07/26 07:53:58;;;;;;;2.10;0.70;;;23.90;70.00;;;;;;4942811;29;20075;-75
2022/07/26 07:56:24;;;;;;;4.18;0.73;;;24.10;69.40;;;;;;4943719;29;20043;-70
2022/07/26 07:58:50;;;;;;;4.00;0.80;;;24.20;69.40;;;;;;4927894;29;20040;-72
2022/07/26 08:01:15;;;;;;;3.92;0.70;;;24.40;68.00;;;;;;4924851;29;20066;-73
2022/07/26 08:03:41;;;;;;;2.95;0.77;;;24.40;68.30;;;;;;4926820;29;20052;-73
2022/07/26 08:06:08;;;;;;;3.22;0.60;;;24.40;67.20;;;;;;4926299;29;20040;-74
2022/07/26 08:08:34;;;;;;;2.53;0.55;;;24.30;67.60;;;;;;4937909;29;20075;-74
2022/07/26 08:11:00;;;;;;;3.25;0.77;;;24.20;67.50;;;;;;4946379;29;20028;-73
2022/07/26 08:13:26;;;;;;;2.65;0.60;;;24.30;68.10;;;;;;4946092;29;20099;-71
2022/07/26 08:15:53;;;;;;;3.50;0.93;;;24.50;67.50;;;;;;4952102;29;20328;-75
2022/07/26 08:18:21;;;;;;;4.22;0.70;;;24.70;67.40;;;;;;4964789;29;20023;-72
2022/07/26 08:20:47;;;;;;;1.92;0.52;;;24.70;67.00;;;;;;4965253;29;20367;-73
2022/07/26 08:23:13;;;;;;;2.20;0.60;;;24.90;67.10;;;;;;4964761;29;20035;-72
2022/07/26 08:25:42;;;;;;;2.08;0.60;;;25.00;66.90;;;;;;4965198;29;20046;-74
2022/07/26 08:28:08;;;;;;;2.45;0.60;;;25.20;66.00;;;;;;4958016;29;20081;-74
2022/07/26 08:30:33;;;;;;;4.85;0.60;;;25.10;65.90;;;;;;4933179;29;20036;-74
2022/07/26 08:32:59;;;;;;;1.85;0.47;;;25.00;66.00;;;;;;4941976;29;20024;-73
2022/07/26 08:35:25;;;;;;;2.72;0.70;;;25.00;65.60;;;;;;4926594;29;20087;-72
2022/07/26 08:37:51;;;;;;;2.85;0.75;;;24.90;66.20;;;;;;4926524;29;20036;-73
2022/07/26 08:40:17;;;;;;;2.15;0.55;;;24.70;65.80;;;;;;4926192;29;20048;-73
2022/07/26 08:42:50;;;;;;;2.33;0.50;;;24.50;65.90;;;;;;4937420;29;20158;-71
2022/07/26 08:45:27;;;;;;;3.13;0.80;;;24.30;66.70;;;;;;4927390;29;20129;-72
2022/07/26 08:47:54;;;;;;;1.88;0.60;;;24.60;66.90;;;;;;4926282;29;20036;-71
2022/07/26 08:50:26;;;;;;;2.88;0.50;;;24.90;65.80;;;;;;4926058;29;20353;-70
2022/07/26 08:52:57;;;;;;;1.77;0.60;;;25.10;65.30;;;;;;4925926;29;20040;-70
2022/07/26 08:55:23;;;;;;;4.05;1.20;;;25.20;64.90;;;;;;4926455;29;20075;-72
2022/07/26 08:57:49;;;;;;;4.88;0.65;;;25.30;64.40;;;;;;4936299;29;20039;-73
2022/07/26 09:00:24;;;;;;;3.88;0.70;;;25.30;64.90;;;;;;4943982;29;20036;-73
2022/07/26 09:02:54;;;;;;;3.58;0.60;;;25.30;64.50;;;;;;4924799;29;20328;-77
2022/07/26 09:05:29;;;;;;;2.80;0.57;;;25.20;63.60;;;;;;4925413;29;20038;-72
2022/07/26 09:07:56;;;;;;;2.38;0.60;;;25.20;63.40;;;;;;4925206;29;20044;-73
2022/07/26 09:10:23;;;;;;;4.53;0.73;;;25.40;63.20;;;;;;4937190;29;20043;-71
2022/07/26 09:12:57;;;;;;;1.45;0.50;;;25.80;62.60;;;;;;4944917;29;20309;-72
2022/07/26 09:15:26;;;;;;;3.05;0.60;;;25.80;62.70;;;;;;4925112;29;20325;-72
2022/07/26 09:17:54;;;;;;;1.88;0.50;;;25.70;63.00;;;;;;4925949;29;20020;-73
2022/07/26 09:20:31;;;;;;;2.33;0.50;;;25.60;63.50;;;;;;4925336;29;20040;-70
2022/07/26 09:23:04;;;;;;;2.08;0.50;;;25.60;63.50;;;;;;4926114;29;20039;-71
2022/07/26 09:25:34;;;;;;;7.47;1.00;;;25.60;62.70;;;;;;4926049;29;20036;-71
2022/07/26 09:28:01;;;;;;;2.22;0.77;;;25.90;62.20;;;;;;4925715;29;20046;-71
2022/07/26 09:30:28;;;;;;;4.35;0.75;;;26.30;61.70;;;;;;4925324;29;20043;-71
2022/07/26 09:33:13;;;;;;;4.78;0.80;;;26.40;61.30;;;;;;4925403;29;20024;-73
2022/07/26 09:35:39;;;;;;;3.40;0.68;;;26.50;61.30;;;;;;4925499;29;20036;-72
2022/07/26 09:38:13;;;;;;;3.42;0.60;;;26.40;62.00;;;;;;4936572;29;20023;-72
2022/07/26 09:40:38;;;;;;;5.55;0.60;;;26.30;61.90;;;;;;4945981;29;20091;-73
2022/07/26 09:43:06;;;;;;;3.58;0.47;;;26.30;62.40;;;;;;4945148;29;20091;-71
2022/07/26 09:45:34;;;;;;;2.33;0.50;;;26.20;62.30;;;;;;4944541;29;20066;-72
2022/07/26 09:48:01;;;;;;;4.28;0.88;;;26.20;61.90;;;;;;4944449;29;20023;-73
2022/07/26 09:50:29;;;;;;;1.85;0.60;;;26.30;62.00;;;;;;4944276;29;20031;-72
2022/07/26 09:53:06;;;;;;;2.50;0.47;;;26.20;61.10;;;;;;4944266;29;20098;-74
2022/07/26 09:55:34;;;;;;;4.88;0.60;;;26.10;61.30;;;;;;4943953;29;20032;-72
2022/07/26 09:58:02;;;;;;;3.15;0.60;;;25.80;61.90;;;;;;4943619;29;20059;-74
2022/07/26 10:00:30;;;;;;;1.65;0.30;;;25.50;62.30;;;;;;4910406;29;20040;-74
2022/07/26 10:02:55;;;;;;;2.13;0.50;;;25.30;63.00;;;;;;4940825;29;20287;-72
2022/07/26 10:05:22;;;;;;;2.55;0.40;;;25.30;63.50;;;;;;4924252;29;20032;-75
2022/07/26 10:07:49;;;;;;;2.15;0.50;;;25.30;63.70;;;;;;4924987;29;20032;-71
2022/07/26 10:10:22;;;;;;;2.03;0.60;;;25.50;63.60;;;;;;4934368;29;20023;-71
2022/07/26 10:12:51;;;;;;;2.63;0.50;;;25.30;63.30;;;;;;4943930;29;20042;-72
2022/07/26 10:15:58;;;;;;;3.47;0.50;;;25.30;64.00;;;;;;4946277;28;20040;-74
2022/07/26 10:18:36;;;;;;;2.17;0.50;;;25.20;63.80;;;;;;4981680;28;20109;-74
2022/07/26 10:21:22;;;;;;;2.10;0.60;;;25.30;64.50;;;;;;4981782;28;20092;-70
2022/07/26 10:24:33;;;;;;;2.35;0.50;;;25.30;64.80;;;;;;4982265;28;20046;-71
2022/07/26 10:26:59;;;;;;;3.70;0.68;;;25.50;64.70;;;;;;4981957;28;20053;-74
2022/07/26 10:29:26;;;;;;;2.47;0.63;;;25.30;63.80;;;;;;4982161;28;20035;-72
2022/07/26 10:31:55;;;;;;;4.15;0.63;;;25.40;64.50;;;;;;4981498;28;20085;-71
2022/07/26 10:34:30;;;;;;;;;;;25.30;64.50;;;;;;4981977;28;20098;-71
2022/07/26 10:37:03;;;;;;;3.35;0.50;;;25.40;64.90;;;;;;4981392;28;20136;-71
2022/07/26 10:39:28;;;;;;;1.70;0.60;;;25.30;64.80;;;;;;4982046;28;20339;-72
2022/07/26 10:42:02;;;;;;;1.83;0.43;;;25.60;64.80;;;;;;4964674;28;20018;-70
2022/07/26 10:44:50;;;;;;;3.88;0.40;;;25.70;64.70;;;;;;4981781;28;20019;-71
2022/07/26 10:47:24;;;;;;;1.87;0.40;;;26.10;63.50;;;;;;4980626;28;20106;-70
2022/07/26 10:49:57;;;;;;;1.35;0.40;;;26.20;62.70;;;;;;4981952;28;20038;-72
2022/07/26 10:52:36;;;;;;;2.65;0.60;;;25.90;63.80;;;;;;4981788;28;20042;-70
2022/07/26 10:55:05;;;;;;;;;;;25.90;62.70;;;;;;4981942;28;20098;-69
2022/07/26 10:57:50;;;;;;;2.95;0.68;;;26.10;62.40;;;;;;4961098;29;19910;-71
2022/07/26 11:00:24;;;;;;;3.50;0.50;;;26.20;62.00;;;;;;4961234;29;20078;-71
2022/07/26 11:02:59;;;;;;;3.63;0.50;;;26.40;61.80;;;;;;4962121;29;20082;-71
2022/07/26 11:05:43;;;;;;;3.03;0.60;;;26.40;61.50;;;;;;4945436;29;20201;-74
2022/07/26 11:08:09;;;;;;;4.28;0.70;;;26.40;61.90;;;;;;4945023;29;20023;-73
2022/07/26 11:10:37;;;;;;;2.95;0.80;;;26.50;61.20;;;;;;4949124;29;20030;-71
2022/07/26 11:13:13;;;;;;;3.35;0.60;;;26.80;60.50;;;;;;4947245;28;20069;-72
2022/07/26 11:15:46;;;;;;;3.17;0.50;;;26.90;59.70;;;;;;4944647;29;20054;-74
2022/07/26 11:18:33;;;;;;;2.55;0.40;;;26.80;60.50;;;;;;4942770;29;20043;-71
2022/07/26 11:21:16;;;;;;;0.80;0.30;;;27.10;59.70;;;;;;4951483;29;20045;-71
2022/07/26 11:23:44;;;;;;;3.15;0.60;;;27.20;59.30;;;;;;4962139;29;20329;-72
2022/07/26 11:26:18;;;;;;;3.47;0.60;;;27.50;58.50;;;;;;4961971;29;20440;-73
2022/07/26 11:28:52;;;;;;;1.77;0.40;;;27.40;58.90;;;;;;4959939;29;20034;-72
2022/07/26 11:31:20;;;;;;;1.52;0.57;;;27.60;58.60;;;;;;4927228;29;20325;-72
2022/07/26 11:33:49;;;;;;;2.05;0.60;;;27.90;58.00;;;;;;4946473;29;20019;-71
2022/07/26 11:36:17;;;;;;;1.38;0.50;;;27.90;57.60;;;;;;4945694;29;20070;-72
2022/07/26 11:38:52;;;;;;;2.30;0.52;;;28.40;57.40;;;;;;4963001;29;20031;-72
2022/07/26 11:41:23;;;;;;;1.45;0.60;;;29.00;56.80;;;;;;4965106;29;20050;-72
2022/07/26 11:43:51;;;;;;;1.67;0.40;;;29.30;55.40;;;;;;4946709;29;20067;-73
2022/07/26 11:46:18;;;;;;;1.67;0.37;;;29.30;55.50;;;;;;4951650;28;20274;-72
2022/07/26 11:48:52;;;;;;;1.53;0.43;;;30.30;54.80;;;;;;4965252;29;20451;-72
2022/07/26 11:51:21;;;;;;;2.78;0.50;;;29.70;53.80;;;;;;4964649;29;20276;-72
2022/07/26 11:53:48;;;;;;;1.70;0.50;;;29.40;54.70;;;;;;4965403;29;20097;-74
2022/07/26 11:56:20;;;;;;;1.95;0.43;;;30.30;53.10;;;;;;4965341;29;20035;-72
2022/07/26 11:58:50;;;;;;;4.03;0.40;;;30.80;52.50;;;;;;4965488;29;20091;-73
2022/07/26 12:01:21;;;;;;;1.17;0.38;;;31.30;51.80;;;;;;4964441;29;20063;-71
2022/07/26 12:03:48;;;;;;;1.85;0.40;;;31.80;51.30;;;;;;4965289;29;20043;-72
2022/07/26 12:06:17;;;;;;;0.70;0.30;;;32.30;50.80;;;;;;4958026;29;20039;-72
2022/07/26 12:08:52;;;;;;;1.20;0.30;;;32.70;50.30;;;;;;4945531;29;20075;-71
2022/07/26 12:11:19;;;;;;;2.00;0.43;;;33.70;49.70;;;;;;4963806;29;20027;-73
2022/07/26 12:13:57;;;;;;;1.25;0.30;;;33.50;49.10;;;;;;4965018;29;20054;-73
2022/07/26 12:16:52;;;;;;;;;;;33.60;48.80;;;;;;4957639;28;20051;-73
2022/07/26 12:19:17;;;;;;;2.35;0.40;;;34.40;48.30;;;;;;4948100;29;19906;-73
2022/07/26 12:21:46;;;;;;;1.73;0.80;;;35.50;47.10;;;;;;4965083;29;20038;-73
2022/07/26 12:24:33;;;;;;;1.48;0.40;;;34.80;47.20;;;;;;4964496;29;20047;-73
2022/07/26 12:27:11;;;;;;;1.85;0.45;;;35.20;47.20;;;;;;4965065;29;20047;-72
2022/07/26 12:29:42;;;;;;;1.45;0.30;;;35.00;46.90;;;;;;4965026;29;20198;-72
2022/07/26 12:32:31;;;;;;;1.77;0.40;;;35.30;46.60;;;;;;4964138;28;20434;-72
2022/07/26 12:35:14;;;;;;;2.25;0.40;;;35.90;45.90;;;;;;4954757;29;20070;-73
2022/07/26 12:37:46;;;;;;;1.13;0.40;;;35.70;45.80;;;;;;4956324;29;20047;-72
2022/07/26 12:40:15;;;;;;;1.15;0.35;;;36.00;45.30;;;;;;4945211;29;20194;-72
2022/07/26 12:42:43;;;;;;;1.35;0.30;;;36.20;45.30;;;;;;4955362;29;20038;-72
2022/07/26 12:45:11;;;;;;;1.25;0.30;;;37.00;45.00;;;;;;4963976;28;20143;-72
2022/07/26 12:47:40;;;;;;;2.50;0.50;;;38.00;44.20;;;;;;4964454;29;20050;-73
2022/07/26 12:50:07;;;;;;;2.75;0.40;;;38.60;43.60;;;;;;4963625;29;20059;-72
2022/07/26 12:52:33;;;;;;;0.90;0.30;;;38.80;42.90;;;;;;4964453;29;20039;-74
2022/07/26 12:55:00;;;;;;;2.85;0.40;;;36.20;44.30;;;;;;4964953;29;20074;-73
2022/07/26 12:57:27;;;;;;;2.43;0.60;;;35.80;44.50;;;;;;4963976;29;20035;-74
2022/07/26 12:59:54;;;;;;;3.50;0.40;;;36.40;44.20;;;;;;4964800;29;20042;-74
2022/07/26 13:02:20;;;;;;;2.30;0.40;;;37.10;43.50;;;;;;4971442;28;20069;-74
2022/07/26 13:04:46;;;;;;;3.00;0.47;;;36.80;43.30;;;;;;4966049;28;20046;-74
2022/07/26 13:07:13;;;;;;;2.42;0.30;;;36.20;44.70;;;;;;4964404;29;20054;-74
2022/07/26 13:09:39;;;;;;;1.98;0.32;;;35.40;44.70;;;;;;4958152;29;20038;-74
2022/07/26 13:12:06;;;;;;;1.13;0.25;;;35.80;44.80;;;;;;4944370;29;20035;-74
2022/07/26 13:14:33;;;;;;;2.00;0.40;;;37.50;43.40;;;;;;4945366;29;20044;-74
2022/07/26 13:17:00;;;;;;;0.97;0.40;;;38.90;41.80;;;;;;4944668;29;20063;-74
2022/07/26 13:19:26;;;;;;;1.13;0.20;;;38.20;41.60;;;;;;4944712;29;20263;-73
2022/07/26 13:21:53;;;;;;;1.42;0.20;;;37.80;41.80;;;;;;4945028;29;20023;-74
2022/07/26 13:24:19;;;;;;;1.15;0.35;;;38.10;41.80;;;;;;4944605;29;20054;-73
2022/07/26 13:26:45;;;;;;;3.03;0.40;;;40.20;41.70;;;;;;4944570;29;20032;-73
2022/07/26 13:29:11;;;;;;;1.33;0.30;;;41.80;40.70;;;;;;4944002;29;20040;-74
2022/07/26 13:31:37;;;;;;;2.25;0.30;;;41.90;40.30;;;;;;4944199;29;20040;-73
2022/07/26 13:34:17;;;;;;;1.63;0.20;;;42.10;39.80;;;;;;4945148;29;20026;-78
2022/07/26 13:36:44;;;;;;;2.08;0.40;;;40.40;40.30;;;;;;4952792;29;20035;-74
2022/07/26 13:39:11;;;;;;;1.73;0.28;;;41.00;40.50;;;;;;4946249;29;20023;-74
2022/07/26 13:41:37;;;;;;;1.70;0.30;;;41.80;39.90;;;;;;4963876;29;21425;-74
2022/07/26 13:44:03;;;;;;;2.50;0.40;;;42.60;38.70;;;;;;4963563;29;20320;-74
2022/07/26 13:46:29;;;;;;;2.10;0.20;;;42.70;38.20;;;;;;4962419;28;20102;-74
2022/07/26 13:48:59;;;;;;;2.22;0.25;;;42.60;38.90;;;;;;4963409;29;20039;-74
2022/07/26 13:54:15;;;;;;;1.38;0.40;;;39.80;41.00;;;;;;4962758;28;20229;-74
2022/07/26 13:56:42;;;;;;;2.35;0.40;;;41.60;40.30;;;;;;4963484;29;20101;-73
2022/07/26 13:59:08;;;;;;;1.17;0.30;;;42.30;39.30;;;;;;4962803;29;20110;-74
2022/07/26 14:01:34;;;;;;;2.60;0.45;;;41.20;40.10;;;;;;4964435;28;20277;-73
2022/07/26 14:04:03;;;;;;;3.00;0.40;;;41.80;39.90;;;;;;4971101;28;20054;-72
2022/07/26 14:06:28;;;;;;;1.27;0.30;;;42.90;39.30;;;;;;4962370;29;20264;-71
2022/07/26 14:08:54;;;;;;;1.98;0.40;;;41.50;38.80;;;;;;4962854;29;20031;-71
2022/07/26 14:11:20;;;;;;;1.10;0.30;;;38.70;41.10;;;;;;4962957;29;20059;-70
2022/07/26 14:13:46;;;;;;;1.15;0.38;;;40.20;40.60;;;;;;4963181;29;20039;-72
2022/07/26 14:16:12;;;;;;;1.40;0.30;;;41.20;39.90;;;;;;4961995;29;20046;-73
2022/07/26 14:18:38;;;;;;;0.98;0.30;;;42.80;39.30;;;;;;4963015;29;20026;-74
2022/07/26 14:21:04;;;;;;;2.20;0.30;;;44.00;38.30;;;;;;4963205;29;20030;-76
2022/07/26 14:23:29;;;;;;;1.42;0.30;;;44.10;38.20;;;;;;4962555;29;20126;-69
2022/07/26 14:25:55;;;;;;;1.85;0.40;;;43.60;38.30;;;;;;4962969;29;20098;-71
2022/07/26 14:28:21;;;;;;;1.38;0.30;;;42.10;39.40;;;;;;4962669;29;20062;-72
2022/07/26 14:30:47;;;;;;;4.38;0.98;;;42.20;39.20;;;;;;4962243;29;20069;-71
2022/07/26 14:33:13;;;;;;;1.35;0.30;;;42.70;38.80;;;;;;4962485;29;20018;-71
2022/07/26 14:35:40;;;;;;;2.15;0.40;;;44.20;37.60;;;;;;4963085;29;20058;-70
2022/07/26 14:38:07;;;;;;;1.58;0.40;;;42.10;38.30;;;;;;4962618;29;20059;-69
2022/07/26 14:40:34;;;;;;;1.30;0.30;;;38.90;39.90;;;;;;4962593;29;20046;-69
2022/07/26 14:43:00;;;;;;;2.53;0.30;;;36.70;41.10;;;;;;4962925;29;20197;-69
2022/07/26 14:45:26;;;;;;;2.00;0.40;;;35.50;43.10;;;;;;4961614;29;20058;-78
2022/07/26 14:47:52;;;;;;;1.25;0.30;;;36.50;41.80;;;;;;4946000;29;20193;-72
2022/07/26 14:50:18;;;;;;;1.50;0.40;;;36.30;42.10;;;;;;4962233;29;20039;-72
2022/07/26 14:52:48;;;;;;;1.42;0.40;;;35.60;42.10;;;;;;4962704;29;20375;-71
2022/07/26 14:55:15;;;;;;;1.10;0.40;;;34.20;42.90;;;;;;4962182;29;20062;-71
2022/07/26 14:57:41;;;;;;;2.05;0.47;;;32.50;44.30;;;;;;4971401;28;20221;-77
2022/07/26 15:00:11;;;;;;;4.00;0.50;;;31.80;45.30;;;;;;4981353;28;20031;-75
2022/07/26 15:02:42;;;;;;;1.95;0.30;;;31.30;46.30;;;;;;4980976;28;20074;-72
2022/07/26 15:05:09;;;;;;;1.17;0.35;;;31.40;46.00;;;;;;4963475;28;20065;-70
2022/07/26 15:07:35;;;;;;;1.67;0.50;;;32.50;45.60;;;;;;4966601;29;20125;-71
2022/07/26 15:10:01;;;;;;;1.35;0.40;;;35.00;43.50;;;;;;4966537;29;20091;-71
2022/07/26 15:12:27;;;;;;;0.90;0.30;;;35.90;42.60;;;;;;4967041;29;20027;-70
2022/07/26 15:14:52;;;;;;;2.22;0.45;;;36.00;42.40;;;;;;4967130;29;20059;-69
2022/07/26 15:17:18;;;;;;;1.73;0.32;;;36.20;42.50;;;;;;4966098;29;20117;-71
2022/07/26 15:19:44;;;;;;;0.60;0.20;;;38.40;41.10;;;;;;4967444;29;20035;-70
2022/07/26 15:22:10;;;;;;;0.90;0.25;;;39.90;40.10;;;;;;4965713;29;20023;-70
2022/07/26 15:24:36;;;;;;;2.15;0.40;;;40.40;39.50;;;;;;4967316;29;20031;-70
2022/07/26 15:27:01;;;;;;;1.42;0.20;;;42.20;38.50;;;;;;4966571;29;20313;-71
2022/07/26 15:29:27;;;;;;;1.88;0.40;;;41.70;38.20;;;;;;4965900;29;20107;-74
2022/07/26 15:31:53;;;;;;;1.48;0.28;;;39.00;39.80;;;;;;4948615;29;20054;-71
2022/07/26 15:34:19;;;;;;;2.97;0.73;;;37.40;41.40;;;;;;4965588;29;20225;-70
2022/07/26 15:36:44;;;;;;;1.73;0.30;;;35.80;42.70;;;;;;4950813;29;20040;-70
2022/07/26 15:39:10;;;;;;;2.05;0.40;;;34.40;43.70;;;;;;4965922;29;20027;-71
2022/07/26 15:41:37;;;;;;;1.33;0.30;;;35.30;44.50;;;;;;4948880;29;20196;-69
2022/07/26 15:44:03;;;;;;;3.75;0.68;;;38.50;41.80;;;;;;4965415;29;20061;-70
2022/07/26 15:46:28;;;;;;;0.65;0.30;;;40.50;40.40;;;;;;4964467;29;20043;-69
2022/07/26 15:48:54;;;;;;;2.63;0.60;;;42.20;39.30;;;;;;4965698;29;20031;-69
2022/07/26 15:51:22;;;;;;;2.22;0.20;;;43.80;38.60;;;;;;4965281;29;20031;-70
2022/07/26 15:53:47;;;;;;;0.75;0.22;;;44.00;38.00;;;;;;4965908;29;20054;-70
2022/07/26 15:56:13;;;;;;;2.17;0.60;;;41.80;38.70;;;;;;4960755;29;20039;-69
2022/07/26 15:58:39;;;;;;;3.65;0.40;;;40.30;40.30;;;;;;4947463;29;20043;-70
2022/07/26 16:01:05;;;;;;;1.85;0.75;;;39.90;39.90;;;;;;4946783;29;20346;-69
2022/07/26 16:03:31;;;;;;;1.95;0.52;;;40.20;39.50;;;;;;4947539;29;20062;-69
2022/07/26 16:05:56;;;;;;;2.15;0.50;;;41.50;39.20;;;;;;4951645;29;20031;-69
2022/07/26 16:08:23;;;;;;;1.08;0.30;;;43.10;38.60;;;;;;4966471;29;20106;-71
2022/07/26 16:10:48;;;;;;;1.27;0.30;;;43.90;38.00;;;;;;4949498;29;20308;-71
2022/07/26 16:13:14;;;;;;;2.65;0.50;;;44.30;38.20;;;;;;4966015;29;20034;-69
2022/07/26 16:15:40;;;;;;;0.93;0.30;;;44.50;37.80;;;;;;4965629;28;20035;-70
2022/07/26 16:18:06;;;;;;;1.88;0.30;;;44.20;38.10;;;;;;4966369;29;20027;-70
2022/07/26 16:20:32;;;;;;;2.10;0.50;;;41.60;39.10;;;;;;4966156;29;20043;-69
2022/07/26 16:22:58;;;;;;;2.05;0.40;;;39.10;40.90;;;;;;4966326;29;20112;-72
2022/07/26 16:25:24;;;;;;;3.60;0.43;;;37.00;42.10;;;;;;4966167;29;20039;-71
2022/07/26 16:27:52;;;;;;;1.60;0.32;;;35.30;43.70;;;;;;4966745;29;20098;-69
2022/07/26 16:30:18;;;;;;;1.05;0.35;;;34.40;45.10;;;;;;4965006;29;20035;-68
2022/07/26 16:32:44;;;;;;;2.22;0.52;;;35.50;44.20;;;;;;4966299;29;20038;-70
2022/07/26 16:35:10;;;;;;;2.17;0.40;;;37.60;42.80;;;;;;4966605;29;20027;-70
2022/07/26 16:37:36;;;;;;;2.53;0.32;;;38.30;41.50;;;;;;4965715;29;20031;-70
2022/07/26 16:40:03;;;;;;;3.13;0.50;;;36.70;42.70;;;;;;4966102;29;20340;-70
2022/07/26 16:42:29;;;;;;;2.38;0.60;;;35.10;43.90;;;;;;4965454;29;20083;-69
2022/07/26 16:44:55;;;;;;;2.40;0.88;;;33.80;44.90;;;;;;4966170;29;20038;-69
2022/07/26 16:47:20;;;;;;;2.20;0.50;;;33.20;45.70;;;;;;4963879;29;20051;-70
2022/07/26 16:49:47;;;;;;;2.60;0.52;;;33.00;46.00;;;;;;4966155;29;20042;-68
2022/07/26 16:52:13;;;;;;;1.50;0.40;;;32.90;46.30;;;;;;4964855;29;20020;-70
2022/07/26 16:54:39;;;;;;;2.03;0.60;;;32.60;46.70;;;;;;4965274;29;20248;-69
2022/07/26 16:57:05;;;;;;;2.45;0.40;;;32.50;46.90;;;;;;4965681;29;20313;-69
2022/07/26 16:59:31;;;;;;;1.10;0.40;;;32.30;47.10;;;;;;4965343;29;20038;-70
2022/07/26 17:01:56;;;;;;;2.38;0.50;;;32.10;47.00;;;;;;4964991;29;20051;-70
2022/07/26 17:04:22;;;;;;;1.35;0.40;;;31.50;47.90;;;;;;4965376;29;20039;-70
2022/07/26 17:06:48;;;;;;;1.50;0.40;;;31.10;48.50;;;;;;4965520;29;20050;-70
2022/07/26 17:09:14;;;;;;;2.70;0.57;;;30.60;49.20;;;;;;4965734;29;20031;-70
2022/07/26 17:11:39;;;;;;;1.50;0.40;;;30.30;49.40;;;;;;4965378;29;20035;-69
2022/07/26 17:14:05;;;;;;;1.35;0.43;;;29.90;49.80;;;;;;4965714;29;20110;-69
2022/07/26 17:16:31;;;;;;;1.77;0.50;;;29.60;50.10;;;;;;4964426;28;20042;-70
2022/07/26 17:18:57;;;;;;;3.05;0.47;;;29.30;50.50;;;;;;4965389;29;20331;-70
2022/07/26 17:21:23;;;;;;;1.55;0.57;;;29.30;50.70;;;;;;4965379;29;20035;-70
2022/07/26 17:23:50;;;;;;;4.95;0.55;;;30.30;49.30;;;;;;4965689;29;20054;-69
2022/07/26 17:26:17;;;;;;;1.90;0.50;;;31.40;48.10;;;;;;4965304;29;20043;-70
2022/07/26 17:28:43;;;;;;;2.43;0.50;;;33.40;46.80;;;;;;4964508;28;20019;-71
2022/07/26 17:31:09;;;;;;;2.13;0.50;;;34.20;45.40;;;;;;4964724;28;20089;-71
2022/07/26 17:33:35;;;;;;;3.38;0.60;;;34.60;44.60;;;;;;4964576;29;20035;-69
2022/07/26 17:36:01;;;;;;;1.92;0.60;;;33.80;45.20;;;;;;4965051;29;20058;-72
2022/07/26 17:38:26;;;;;;;3.10;0.40;;;34.20;45.20;;;;;;4964382;29;20035;-70
2022/07/26 17:40:52;;;;;;;3.15;0.90;;;34.50;44.60;;;;;;4965276;29;20078;-69
2022/07/26 17:43:18;;;;;;;2.20;0.50;;;34.70;44.50;;;;;;4947236;29;20027;-70
2022/07/26 17:45:43;;;;;;;3.53;1.30;;;34.10;44.90;;;;;;4964467;28;20039;-70
2022/07/26 17:48:10;;;;;;;2.83;0.93;;;34.20;45.20;;;;;;4964709;29;20242;-72
2022/07/26 17:50:35;;;;;;;1.80;0.50;;;34.80;44.50;;;;;;4964620;29;20042;-72
2022/07/26 17:53:01;;;;;;;2.28;0.95;;;35.20;44.20;;;;;;4964948;29;20058;-69
2022/07/26 17:55:28;;;;;;;2.88;0.47;;;35.70;44.00;;;;;;4964549;29;20023;-72
2022/07/26 17:57:56;;;;;;;3.03;0.50;;;36.10;43.40;;;;;;4964720;29;20035;-69